Time;durP1;ratioP1;P1;durP2;ratioP2;P2;SDS_P1;SDS_P2;PMS_P1;PMS_P2;Temp;Humidity;BMP_temperature;BMP_pressure;BME280_temperature;BME280_humidity;BME280_pressure;Samples;Min_cycle;Max_cycle;Signal;HPM_P1;HPM_P2
2022/06/11 00:01:20;;;;;;;1999.90;999.90;;;18.30;99.90;;;;;;5113019;28;20181;-60
2022/06/11 00:03:49;;;;;;;1999.90;999.90;;;18.10;99.90;;;;;;5112663;28;20647;-60
2022/06/11 00:06:16;;;;;;;1999.90;999.90;;;18.10;99.90;;;;;;5112967;28;20197;-60
2022/06/11 00:08:44;;;;;;;1999.90;999.90;;;18.10;99.90;;;;;;5112931;28;20208;-60
2022/06/11 00:11:12;;;;;;;1999.90;999.90;;;17.90;99.90;;;;;;5112855;28;20212;-60
2022/06/11 00:13:41;;;;;;;1999.90;999.90;;;17.80;99.90;;;;;;5112775;28;20225;-60
2022/06/11 00:16:09;;;;;;;1999.90;999.90;;;17.80;99.90;;;;;;5112541;28;20658;-60
2022/06/11 00:18:41;;;;;;;1999.90;999.90;;;17.80;99.90;;;;;;5112559;28;20693;-60
2022/06/11 00:21:08;;;;;;;1999.90;999.90;;;17.70;99.90;;;;;;5112838;28;20587;-60
2022/06/11 00:23:35;;;;;;;1999.90;999.90;;;17.70;99.90;;;;;;5112789;28;20231;-60
2022/06/11 00:26:03;;;;;;;1999.90;999.90;;;17.40;99.90;;;;;;5112839;28;20559;-61
2022/06/11 00:28:30;;;;;;;1999.90;999.90;;;17.30;99.90;;;;;;5112769;28;20203;-60
2022/06/11 00:30:58;;;;;;;1999.90;999.90;;;17.30;99.90;;;;;;5112983;28;20250;-60
2022/06/11 00:33:25;;;;;;;1999.90;999.90;;;17.30;99.90;;;;;;5112687;28;20204;-60
2022/06/11 00:35:53;;;;;;;1999.90;999.90;;;17.30;99.90;;;;;;5112656;28;20196;-60
2022/06/11 00:38:21;;;;;;;1999.90;999.90;;;17.40;99.90;;;;;;5112276;28;20258;-60
2022/06/11 00:40:50;;;;;;;1999.90;999.90;;;17.50;99.90;;;;;;5112912;28;20193;-60
2022/06/11 00:43:19;;;;;;;1999.90;999.90;;;17.40;99.90;;;;;;5112452;28;20237;-60
2022/06/11 00:45:52;;;;;;;1999.90;999.90;;;17.40;99.90;;;;;;5116226;28;20716;-60
2022/06/11 00:48:23;;;;;;;1999.90;999.90;;;17.40;99.90;;;;;;5116150;28;20189;-60
2022/06/11 00:50:56;;;;;;;1999.90;999.90;;;17.40;99.90;;;;;;5116465;28;20574;-61
2022/06/11 00:53:33;;;;;;;1999.90;999.90;;;17.40;99.90;;;;;;5116169;28;20186;-60
2022/06/11 00:56:01;;;;;;;1999.90;999.90;;;17.50;99.90;;;;;;5116350;28;20173;-60
2022/06/11 00:58:34;;;;;;;1999.90;999.90;;;17.40;99.90;;;;;;5116168;28;20206;-60
2022/06/11 01:01:02;;;;;;;1999.90;999.90;;;17.40;99.90;;;;;;5116007;28;20182;-60
2022/06/11 01:03:32;;;;;;;1999.90;999.90;;;17.40;99.90;;;;;;5116017;28;20618;-59
2022/06/11 01:06:10;;;;;;;1999.90;999.90;;;17.40;99.90;;;;;;5116193;28;20197;-60
2022/06/11 01:08:56;;;;;;;1999.90;999.90;;;17.30;99.90;;;;;;5114959;28;20671;-60
2022/06/11 01:11:46;;;;;;;1999.90;999.90;;;17.30;99.90;;;;;;5163624;22;20228;-60
2022/06/11 01:14:26;;;;;;;1999.90;999.90;;;17.20;99.90;;;;;;5005736;28;20682;-61
2022/06/11 01:17:01;;;;;;;1999.90;999.90;;;17.10;99.90;;;;;;5004782;28;20220;-60
2022/06/11 01:20:01;;;;;;;1999.90;999.90;;;17.00;99.90;;;;;;5004517;28;20533;-60
2022/06/11 01:22:52;;;;;;;1999.90;999.90;;;16.90;99.90;;;;;;5004004;28;20256;-60
2022/06/11 01:25:28;;;;;;;1999.90;999.90;;;16.90;99.90;;;;;;5000915;28;20665;-60
2022/06/11 01:28:14;;;;;;;1999.90;999.90;;;16.90;99.90;;;;;;5004009;28;20288;-60
2022/06/11 01:30:45;;;;;;;1999.90;999.90;;;16.80;99.90;;;;;;5016039;28;20196;-60
2022/06/11 01:33:16;;;;;;;1999.90;999.90;;;16.80;99.90;;;;;;5003063;28;20696;-60
2022/06/11 01:35:55;;;;;;;1999.90;999.90;;;16.80;99.90;;;;;;5005861;28;20207;-60
2022/06/11 01:38:29;;;;;;;1999.90;999.90;;;16.80;99.90;;;;;;5006770;28;20196;-60
2022/06/11 01:41:07;;;;;;;1999.90;999.90;;;16.80;99.90;;;;;;4995615;28;20186;-60
2022/06/11 01:43:38;;;;;;;1999.90;999.90;;;16.80;99.90;;;;;;4995542;28;20591;-61
2022/06/11 01:46:17;;;;;;;1999.90;999.90;;;16.80;99.90;;;;;;4995430;28;20182;-60
2022/06/11 01:48:52;;;;;;;1999.90;999.90;;;16.70;99.90;;;;;;4995408;28;20225;-60
2022/06/11 01:51:29;;;;;;;1999.90;999.90;;;16.60;99.90;;;;;;4995288;28;20198;-61
2022/06/11 01:54:23;;;;;;;1999.90;999.90;;;16.50;99.90;;;;;;4995138;28;20605;-61
2022/06/11 01:57:11;;;;;;;1999.90;999.90;;;16.50;99.90;;;;;;4994313;28;20634;-60
2022/06/11 02:00:08;;;;;;;1999.90;999.90;;;16.40;99.90;;;;;;4995259;28;20182;-60
2022/06/11 02:02:58;;;;;;;1999.90;999.90;;;16.50;99.90;;;;;;4994716;28;20691;-60
2022/06/11 02:05:36;;;;;;;1999.90;999.90;;;16.50;99.90;;;;;;4992584;28;20265;-59
2022/06/11 02:08:17;;;;;;;1999.90;999.90;;;16.50;99.90;;;;;;4995035;28;20192;-60
2022/06/11 02:10:52;;;;;;;1999.90;999.90;;;16.50;99.90;;;;;;4994499;28;20713;-60
2022/06/11 02:13:27;;;;;;;1999.90;999.90;;;16.50;99.90;;;;;;4994653;28;20187;-61
2022/06/11 02:15:58;;;;;;;1999.90;999.90;;;16.40;99.90;;;;;;4994903;28;20268;-60
2022/06/11 02:18:28;;;;;;;1999.90;999.90;;;16.30;99.90;;;;;;4994537;28;20642;-60
2022/06/11 02:21:00;;;;;;;1999.90;999.90;;;16.20;99.90;;;;;;4994750;28;20256;-60
2022/06/11 02:23:32;;;;;;;1999.90;999.90;;;16.10;99.90;;;;;;4994613;28;20199;-59
2022/06/11 02:26:04;;;;;;;1999.90;999.90;;;16.00;99.90;;;;;;4994492;28;20563;-60
2022/06/11 02:28:37;;;;;;;1999.90;999.90;;;16.00;99.90;;;;;;4994629;28;20282;-60
2022/06/11 02:31:08;;;;;;;1999.90;999.90;;;16.10;99.90;;;;;;4994576;28;20176;-60
2022/06/11 02:33:37;;;;;;;1999.90;999.90;;;16.10;99.90;;;;;;4994546;28;20203;-61
2022/06/11 02:36:14;;;;;;;1999.90;999.90;;;16.10;99.90;;;;;;4994120;28;20223;-60
2022/06/11 02:38:41;;;;;;;1999.90;999.90;;;16.00;99.90;;;;;;4994513;28;20190;-61
2022/06/11 02:41:12;;;;;;;1999.90;999.90;;;15.80;99.90;;;;;;4994419;28;20556;-61
2022/06/11 02:43:39;;;;;;;1999.90;999.90;;;15.60;99.90;;;;;;4994083;28;20627;-59
2022/06/11 02:48:49;;;;;;;1999.90;999.90;;;15.80;99.90;;;;;;4993178;28;20265;-60
2022/06/11 02:51:17;;;;;;;1999.90;999.90;;;15.70;99.90;;;;;;4994158;28;20304;-60
2022/06/11 02:53:43;;;;;;;1999.90;999.90;;;15.60;99.90;;;;;;4994026;28;20220;-60
2022/06/11 02:56:11;;;;;;;1999.90;999.90;;;15.50;99.90;;;;;;4994044;28;20212;-61
2022/06/11 02:58:38;;;;;;;1999.90;999.90;;;15.40;99.90;;;;;;4994073;28;20613;-60
2022/06/11 03:01:05;;;;;;;1999.90;999.90;;;15.30;99.90;;;;;;4993987;28;20201;-60
2022/06/11 03:03:32;;;;;;;1999.90;999.90;;;15.20;99.90;;;;;;4993958;28;20200;-60
2022/06/11 03:06:00;;;;;;;1999.90;999.90;;;15.00;99.90;;;;;;4994104;28;20208;-60
2022/06/11 03:08:28;;;;;;;1999.90;999.90;;;14.90;99.90;;;;;;4992603;28;20674;-60
2022/06/11 03:10:55;;;;;;;1999.90;999.90;;;14.90;99.90;;;;;;4993633;28;20225;-60
2022/06/11 03:13:22;;;;;;;1999.90;999.90;;;14.80;99.90;;;;;;4993907;28;20264;-59
2022/06/11 03:15:49;;;;;;;1999.90;999.90;;;15.00;99.90;;;;;;4995430;28;20213;-60
2022/06/11 03:18:17;;;;;;;1999.90;999.90;;;15.10;99.90;;;;;;4996161;28;20202;-62
2022/06/11 03:20:45;;;;;;;1999.90;999.90;;;15.20;99.90;;;;;;4993696;28;20202;-61
2022/06/11 03:23:13;;;;;;;1999.90;999.90;;;15.30;99.90;;;;;;4993231;28;20598;-62
2022/06/11 03:25:40;;;;;;;1999.90;999.90;;;15.20;99.90;;;;;;4993602;28;20252;-63
2022/06/11 03:28:08;;;;;;;1999.90;999.90;;;15.20;99.90;;;;;;4993310;28;20742;-62
2022/06/11 03:30:35;;;;;;;1999.90;999.90;;;15.20;99.90;;;;;;4993544;28;20251;-61
2022/06/11 03:33:02;;;;;;;1999.90;999.90;;;15.40;99.90;;;;;;4993488;28;20190;-62
2022/06/11 03:35:29;;;;;;;1999.90;999.90;;;15.60;99.90;;;;;;4993423;28;20233;-62
2022/06/11 03:37:56;;;;;;;1999.90;999.90;;;15.80;99.90;;;;;;4993341;28;20597;-62
2022/06/11 03:40:25;;;;;;;1999.90;999.90;;;15.80;99.90;;;;;;4993351;28;20211;-62
2022/06/11 03:42:52;;;;;;;1999.90;999.90;;;16.00;99.90;;;;;;4993010;28;20204;-62
2022/06/11 03:45:19;;;;;;;1999.90;999.90;;;16.00;99.90;;;;;;4993377;28;20201;-62
2022/06/11 03:47:46;;;;;;;1999.90;999.90;;;16.20;99.90;;;;;;4993306;28;20252;-62
2022/06/11 03:50:19;;;;;;;1999.90;999.90;;;16.30;99.90;;;;;;4993410;28;20570;-62
2022/06/11 03:52:47;;;;;;;1999.90;999.90;;;16.40;99.90;;;;;;4992872;28;20193;-62
2022/06/11 03:55:14;;;;;;;1999.90;999.90;;;16.50;99.90;;;;;;4993121;28;20217;-63
2022/06/11 03:57:44;;;;;;;1999.90;999.90;;;16.50;99.90;;;;;;4993393;28;20200;-62
2022/06/11 04:00:15;;;;;;;1999.90;999.90;;;16.40;99.90;;;;;;4993247;28;20267;-62
2022/06/11 04:02:42;;;;;;;1999.90;999.90;;;16.40;99.90;;;;;;4992689;28;20193;-63
2022/06/11 04:05:09;;;;;;;1999.90;999.90;;;16.40;99.90;;;;;;4993210;28;20603;-63
2022/06/11 04:07:37;;;;;;;1999.90;999.90;;;16.40;99.90;;;;;;4992758;28;20658;-62
2022/06/11 04:10:06;;;;;;;1999.90;999.90;;;16.50;99.90;;;;;;4992884;28;20232;-62
2022/06/11 04:12:33;;;;;;;1999.90;999.90;;;16.60;99.90;;;;;;4993139;28;20301;-62
2022/06/11 04:15:01;;;;;;;1999.90;999.90;;;16.50;99.90;;;;;;4992985;28;20575;-62
2022/06/11 04:17:31;;;;;;;1999.90;999.90;;;16.60;99.90;;;;;;4993017;28;20297;-62
2022/06/11 04:19:59;;;;;;;1999.90;999.90;;;16.50;99.90;;;;;;4996196;28;20220;-62
2022/06/11 04:22:26;;;;;;;1999.90;999.90;;;16.60;99.90;;;;;;4996689;28;20528;-62
2022/06/11 04:24:53;;;;;;;1999.90;999.90;;;16.60;99.90;;;;;;4996941;28;20207;-62
2022/06/11 04:27:21;;;;;;;1999.90;999.90;;;16.70;99.90;;;;;;4996852;28;20595;-62
2022/06/11 04:29:52;;;;;;;1999.90;999.90;;;16.70;99.90;;;;;;4996861;28;20268;-62
2022/06/11 04:32:22;;;;;;;1999.90;999.90;;;16.70;99.90;;;;;;4996841;28;20250;-62
2022/06/11 04:34:50;;;;;;;1999.90;999.90;;;16.70;99.90;;;;;;4996635;28;20204;-62
2022/06/11 04:37:20;;;;;;;1999.90;999.90;;;16.80;99.90;;;;;;4996765;28;20198;-62
2022/06/11 04:39:51;;;;;;;1999.90;999.90;;;16.70;99.90;;;;;;4996430;28;20206;-61
2022/06/11 04:42:19;;;;;;;1999.90;999.90;;;16.80;99.90;;;;;;4996676;28;20188;-62
2022/06/11 04:44:46;;;;;;;1999.90;999.90;;;16.80;99.90;;;;;;4996528;28;20198;-62
2022/06/11 04:47:17;;;;;;;1999.90;999.90;;;16.80;99.90;;;;;;4996716;28;20205;-62
2022/06/11 04:49:46;;;;;;;1999.90;999.90;;;16.80;99.90;;;;;;4996466;28;20196;-62
2022/06/11 04:52:13;;;;;;;1999.90;999.90;;;16.80;99.90;;;;;;4996317;28;20258;-62
2022/06/11 04:54:40;;;;;;;1999.90;999.90;;;16.90;99.90;;;;;;4996314;28;20210;-62
2022/06/11 04:57:07;;;;;;;1999.90;999.90;;;16.90;99.90;;;;;;4996318;28;20204;-62
2022/06/11 04:59:34;;;;;;;1999.90;999.90;;;16.90;99.90;;;;;;4996307;28;20195;-61
2022/06/11 05:02:02;;;;;;;1999.90;999.90;;;16.90;99.90;;;;;;4996306;28;20223;-62
2022/06/11 05:04:29;;;;;;;1999.90;999.90;;;17.00;99.90;;;;;;4996237;28;20203;-61
2022/06/11 05:06:57;;;;;;;1999.90;999.90;;;17.20;99.90;;;;;;4996414;28;20214;-62
2022/06/11 05:09:28;;;;;;;1999.90;999.90;;;17.30;99.90;;;;;;4996096;28;20207;-62
2022/06/11 05:11:55;;;;;;;1999.90;999.90;;;17.30;99.90;;;;;;4995628;28;20264;-62
2022/06/11 05:14:24;;;;;;;1999.90;999.90;;;17.30;99.90;;;;;;4995751;28;20246;-63
2022/06/11 05:16:51;;;;;;;1999.90;999.90;;;17.40;99.90;;;;;;4995987;28;20275;-62
2022/06/11 05:19:21;;;;;;;1999.90;999.90;;;17.40;99.90;;;;;;4995720;28;20240;-62
2022/06/11 05:21:49;;;;;;;1999.90;999.90;;;17.50;99.90;;;;;;4998944;28;20197;-63
2022/06/11 05:24:19;;;;;;;1999.90;999.90;;;17.50;99.90;;;;;;4997722;28;20215;-62
2022/06/11 05:26:49;;;;;;;1999.90;999.90;;;17.50;99.90;;;;;;4995834;28;20288;-62
2022/06/11 05:29:22;;;;;;;1999.90;999.90;;;17.60;99.90;;;;;;4995974;28;20208;-62
2022/06/11 05:31:49;;;;;;;1999.90;999.90;;;17.60;99.90;;;;;;4994737;28;20190;-62
2022/06/11 05:34:15;;;;;;;1999.90;999.90;;;17.70;99.90;;;;;;4995917;28;20194;-62
2022/06/11 05:36:42;;;;;;;1999.90;999.90;;;17.70;99.90;;;;;;4995546;28;20272;-63
2022/06/11 05:39:09;;;;;;;1999.90;999.90;;;17.80;99.90;;;;;;4995583;28;20285;-64
2022/06/11 05:41:38;;;;;;;1999.90;999.90;;;17.80;99.90;;;;;;4995255;28;20663;-62
2022/06/11 05:44:05;;;;;;;1999.90;999.90;;;17.90;99.90;;;;;;4995192;28;20677;-61
2022/06/11 05:46:34;;;;;;;1999.90;999.90;;;17.90;99.90;;;;;;4995476;28;20280;-62
2022/06/11 05:49:05;;;;;;;1999.90;999.90;;;17.90;99.90;;;;;;4995543;28;20213;-62
2022/06/11 05:51:35;;;;;;;1999.90;999.90;;;18.00;99.90;;;;;;4995010;28;20620;-62
2022/06/11 05:54:06;;;;;;;1999.90;999.90;;;18.10;99.90;;;;;;4995490;28;20194;-62
2022/06/11 05:56:33;;;;;;;1999.90;999.90;;;18.10;99.90;;;;;;4997756;28;20208;-63
2022/06/11 05:59:05;;;;;;;1999.90;999.90;;;18.10;99.90;;;;;;5011078;28;20241;-62
2022/06/11 06:01:36;;;;;;;1999.90;999.90;;;18.20;99.90;;;;;;5006492;28;20239;-63
2022/06/11 06:04:04;;;;;;;1999.90;999.90;;;18.30;99.90;;;;;;5004525;28;20185;-61
2022/06/11 06:06:31;;;;;;;1999.90;999.90;;;18.50;99.90;;;;;;5011468;28;20190;-62
2022/06/11 06:08:58;;;;;;;1999.90;999.90;;;18.60;99.90;;;;;;5005257;28;20194;-63
2022/06/11 06:11:25;;;;;;;1999.90;999.90;;;18.70;99.90;;;;;;5005558;28;20706;-63
2022/06/11 06:13:52;;;;;;;1999.90;999.90;;;18.70;99.90;;;;;;5014406;28;20281;-63
2022/06/11 06:16:23;;;;;;;1999.90;999.90;;;18.80;99.90;;;;;;5003948;28;20213;-63
2022/06/11 06:18:51;;;;;;;1999.90;999.90;;;18.90;99.90;;;;;;5004699;28;20185;-63
2022/06/11 06:21:21;;;;;;;1999.90;999.90;;;19.00;99.90;;;;;;5003237;28;20189;-64
2022/06/11 06:23:48;;;;;;;1999.90;999.90;;;18.90;99.90;;;;;;5003749;28;20193;-63
2022/06/11 06:26:16;;;;;;;1999.90;999.90;;;19.10;99.90;;;;;;5004718;28;20597;-64
2022/06/11 06:28:42;;;;;;;1999.90;999.90;;;19.10;99.90;;;;;;5002338;28;20198;-64
2022/06/11 06:31:11;;;;;;;1999.90;999.90;;;19.40;99.90;;;;;;5001221;28;20198;-62
2022/06/11 06:33:40;;;;;;;1999.90;999.90;;;19.50;99.90;;;;;;5004364;28;20191;-62
2022/06/11 06:36:09;;;;;;;1999.90;999.90;;;19.40;99.90;;;;;;5003990;28;20266;-63
2022/06/11 06:38:36;;;;;;;1999.90;999.90;;;19.70;99.90;;;;;;4998006;28;20202;-63
2022/06/11 06:41:04;;;;;;;1999.90;999.90;;;20.10;99.90;;;;;;4993742;28;20204;-63
2022/06/11 06:43:31;;;;;;;1999.90;999.90;;;20.40;99.90;;;;;;4993624;28;20625;-63
2022/06/11 06:45:58;;;;;;;1999.90;999.90;;;20.30;99.90;;;;;;4993753;28;20552;-63
2022/06/11 06:48:25;;;;;;;1999.90;999.90;;;20.60;99.90;;;;;;4993867;28;20201;-63
2022/06/11 06:50:55;;;;;;;1999.90;999.90;;;20.80;99.90;;;;;;4993526;28;20229;-63
2022/06/11 06:53:22;;;;;;;1999.90;999.90;;;20.70;99.90;;;;;;4993734;28;20248;-64
2022/06/11 06:55:50;;;;;;;1999.90;999.90;;;20.90;99.90;;;;;;4993332;28;20228;-63
2022/06/11 06:58:17;;;;;;;1999.90;999.90;;;20.60;99.90;;;;;;4993565;28;20666;-65
2022/06/11 07:00:44;;;;;;;1999.90;999.90;;;20.50;99.90;;;;;;4993762;28;20205;-63
2022/06/11 07:03:12;;;;;;;1999.90;999.90;;;20.60;99.90;;;;;;4993672;28;20202;-62
2022/06/11 07:05:39;;;;;;;1999.90;999.90;;;20.50;99.90;;;;;;4993675;28;20292;-62
2022/06/11 07:08:08;;;;;;;1999.90;999.90;;;20.40;99.90;;;;;;4993303;28;20209;-62
2022/06/11 07:10:36;;;;;;;1999.90;999.90;;;20.70;99.90;;;;;;4992158;28;20240;-63
2022/06/11 07:13:03;;;;;;;1999.90;999.90;;;21.00;99.90;;;;;;4993690;28;20198;-63
2022/06/11 07:15:30;;;;;;;1999.90;999.90;;;21.20;99.90;;;;;;4993715;28;20210;-63
2022/06/11 07:18:01;;;;;;;1999.90;999.90;;;20.80;99.90;;;;;;4993338;28;20205;-63
2022/06/11 07:20:31;;;;;;;1999.90;999.90;;;21.20;99.90;;;;;;4993506;28;20236;-63
2022/06/11 07:23:01;;;;;;;1999.90;999.90;;;21.70;99.90;;;;;;4993120;28;20209;-63
2022/06/11 07:25:30;;;;;;;1999.90;999.90;;;22.10;99.90;;;;;;4993508;28;20186;-64
2022/06/11 07:28:02;;;;;;;1999.90;999.90;;;22.50;99.90;;;;;;4992983;28;20655;-63
2022/06/11 07:30:33;;;;;;;1999.90;999.90;;;23.40;99.90;;;;;;4993364;28;20201;-63
2022/06/11 07:33:06;;;;;;;1999.90;999.90;;;24.00;99.90;;;;;;4993293;28;20186;-60
2022/06/11 07:35:35;;;;;;;1999.90;999.90;;;23.10;99.90;;;;;;4992771;28;20705;-61
2022/06/11 07:38:03;;;;;;;1999.90;999.90;;;22.30;99.90;;;;;;4993121;28;20205;-61
2022/06/11 07:40:31;;;;;;;1999.90;999.90;;;21.60;99.90;;;;;;4993058;28;20197;-61
2022/06/11 07:42:58;;;;;;;1999.90;999.90;;;21.60;99.90;;;;;;4994123;28;20201;-61
2022/06/11 07:45:25;;;;;;;1999.90;999.90;;;21.30;99.90;;;;;;5002078;28;20255;-61
2022/06/11 07:47:55;;;;;;;1999.90;999.90;;;20.90;99.90;;;;;;4995568;28;20185;-61
2022/06/11 07:50:25;;;;;;;1999.90;999.90;;;20.80;99.90;;;;;;4993219;28;20233;-61
2022/06/11 07:52:52;;;;;;;1999.90;999.90;;;20.50;99.90;;;;;;4992226;28;20590;-62
2022/06/11 07:55:19;;;;;;;1999.90;999.90;;;20.00;99.90;;;;;;4992171;28;20210;-64
2022/06/11 07:57:48;;;;;;;1999.90;999.90;;;19.80;99.90;;;;;;4992935;28;20224;-63
2022/06/11 08:00:17;;;;;;;1999.90;999.90;;;19.90;99.90;;;;;;4992954;28;20205;-64
2022/06/11 08:02:44;;;;;;;1999.90;999.90;;;19.90;99.90;;;;;;4992745;28;20611;-63
2022/06/11 08:05:12;;;;;;;1999.90;999.90;;;20.00;99.90;;;;;;4993159;28;20213;-63
2022/06/11 08:07:39;;;;;;;1999.90;999.90;;;20.00;99.90;;;;;;4992402;28;20678;-64
2022/06/11 08:10:06;;;;;;;1999.90;999.90;;;20.00;99.90;;;;;;4992382;28;20229;-63
2022/06/11 08:12:34;;;;;;;1999.90;999.90;;;20.10;99.90;;;;;;4992422;28;20182;-63
2022/06/11 08:15:03;;;;;;;1999.90;999.90;;;20.20;99.90;;;;;;4992512;28;20690;-64
2022/06/11 08:17:32;;;;;;;1999.90;999.90;;;20.30;99.90;;;;;;4991562;28;20214;-63
2022/06/11 08:19:59;;;;;;;1999.90;999.90;;;20.40;99.90;;;;;;4991993;28;20659;-63
2022/06/11 08:22:26;;;;;;;1999.90;999.90;;;20.60;99.90;;;;;;4991967;28;20197;-63
2022/06/11 08:24:53;;;;;;;1999.90;999.90;;;20.70;99.90;;;;;;4992152;28;20525;-64
2022/06/11 08:27:20;;;;;;;1999.90;999.90;;;20.40;99.90;;;;;;4990474;28;20568;-63
2022/06/11 08:29:47;;;;;;;1999.90;999.90;;;20.40;99.90;;;;;;4991549;28;20197;-63
2022/06/11 08:32:15;;;;;;;1999.90;999.90;;;20.30;99.90;;;;;;4991985;28;20599;-62
2022/06/11 08:34:45;;;;;;;1999.90;999.90;;;20.20;99.90;;;;;;4992837;28;20302;-63
2022/06/11 08:37:13;;;;;;;1999.90;999.90;;;20.30;99.90;;;;;;4992407;28;20217;-63
2022/06/11 08:39:40;;;;;;;1999.90;999.90;;;20.80;99.90;;;;;;4992733;28;20202;-63
2022/06/11 08:42:08;;;;;;;1999.90;999.90;;;20.70;1.00;;;;;;4992503;28;20205;-63
2022/06/11 08:44:38;;;;;;;1999.90;999.90;;;20.60;6.50;;;;;;4992472;28;20301;-63
2022/06/11 08:47:12;;;;;;;1999.90;999.90;;;20.30;1.00;;;;;;4992112;28;20646;-63
2022/06/11 08:49:45;;;;;;;1999.90;999.90;;;20.10;1.00;;;;;;4992501;28;20541;-63
2022/06/11 08:52:14;;;;;;;1999.90;999.90;;;19.80;1.00;;;;;;4992322;28;20189;-61
2022/06/11 08:54:43;;;;;;;1999.90;999.90;;;20.00;99.90;;;;;;4992226;28;20205;-61
2022/06/11 08:57:19;;;;;;;1999.90;999.90;;;20.30;99.90;;;;;;4992367;28;20264;-60
2022/06/11 09:00:00;;;;;;;1999.90;999.90;;;20.80;99.90;;;;;;4992413;28;20232;-60
2022/06/11 09:03:01;;;;;;;1999.90;999.90;;;22.40;1.00;;;;;;4992091;28;20245;-62
2022/06/11 09:05:49;;;;;;;1999.90;999.90;;;22.30;99.90;;;;;;4979509;28;20213;-62
2022/06/11 09:08:42;;;;;;;1999.90;999.90;;;21.70;99.90;;;;;;4995471;28;20205;-63
2022/06/11 09:11:18;;;;;;;1999.90;999.90;;;21.00;99.90;;;;;;4995701;28;20244;-64
2022/06/11 09:14:24;;;;;;;1999.90;999.90;;;21.00;99.90;;;;;;4995874;28;20228;-63
2022/06/11 09:17:05;;;;;;;1999.90;999.90;;;21.20;1.00;;;;;;4996029;28;20547;-63
2022/06/11 09:19:45;;;;;;;1999.90;999.90;;;21.30;99.90;;;;;;4995314;28;20658;-63
2022/06/11 09:22:28;;;;;;;1999.90;999.90;;;21.40;1.00;;;;;;4995174;28;20182;-63
2022/06/11 09:25:14;;;;;;;1999.90;999.90;;;21.10;85.10;;;;;;4995619;28;20193;-60
2022/06/11 09:27:49;;;;;;;1999.90;999.90;;;21.30;1.00;;;;;;4995558;28;20206;-63
2022/06/11 09:30:19;;;;;;;1999.90;999.90;;;21.20;1.00;;;;;;4995547;28;20181;-62
2022/06/11 09:32:52;;;;;;;1999.90;999.90;;;21.60;99.90;;;;;;4995482;28;20213;-62
2022/06/11 09:35:22;;;;;;;1999.90;999.90;;;21.70;99.90;;;;;;4995278;28;20190;-62
2022/06/11 09:38:04;;;;;;;1999.90;999.90;;;22.30;99.90;;;;;;4995321;28;20508;-63
2022/06/11 09:40:38;;;;;;;1999.90;999.90;;;22.40;1.00;;;;;;4995362;28;20188;-63
2022/06/11 09:43:19;;;;;;;1999.90;999.90;;;21.90;1.00;;;;;;4997901;28;20518;-63
2022/06/11 09:45:52;;;;;;;1999.90;999.90;;;21.70;99.90;;;;;;4999670;28;20208;-62
2022/06/11 09:48:28;;;;;;;1999.90;999.90;;;21.80;1.00;;;;;;5014494;28;20711;-62
2022/06/11 09:50:59;;;;;;;1999.90;999.90;;;21.80;1.00;;;;;;5014612;28;20203;-62
2022/06/11 09:53:44;;;;;;;1999.90;999.90;;;22.30;1.00;;;;;;5014177;28;20647;-63
2022/06/11 09:56:16;;;;;;;1999.90;999.90;;;22.50;1.00;;;;;;5014580;28;20292;-63
2022/06/11 09:58:52;;;;;;;1999.90;999.90;;;22.60;1.00;;;;;;5014712;28;20192;-62
2022/06/11 10:01:28;;;;;;;1999.90;999.90;;;22.50;1.00;;;;;;5014763;28;20177;-62
2022/06/11 10:03:58;;;;;;;1999.90;999.90;;;22.60;99.90;;;;;;5014449;28;20648;-62
2022/06/11 10:06:28;;;;;;;1999.90;999.90;;;22.80;99.90;;;;;;5014426;28;20301;-61
2022/06/11 10:08:58;;;;;;;1999.90;999.90;;;23.00;96.60;;;;;;5014321;28;20196;-61
2022/06/11 10:11:29;;;;;;;1999.90;999.90;;;23.70;1.00;;;;;;5014060;28;20615;-61
2022/06/11 10:14:28;;;;;;;1999.90;999.90;;;23.90;99.90;;;;;;5014256;28;20185;-60
2022/06/11 10:16:49;;;;;;;1999.90;999.90;;;23.50;1.00;;;;;;5013114;28;20650;-60
2022/06/11 10:19:31;;;;;;;1999.90;999.90;;;24.10;1.00;;;;;;5014307;28;20219;-60
2022/06/11 10:22:04;;;;;;;1999.90;999.90;;;23.50;1.00;;;;;;5013913;28;20189;-60
2022/06/11 10:24:35;;;;;;;1999.90;999.90;;;23.10;75.40;;;;;;5014036;28;20624;-61
2022/06/11 10:27:08;;;;;;;1999.90;999.90;;;22.80;1.00;;;;;;5014087;28;20173;-62
2022/06/11 10:29:40;;;;;;;1999.90;999.90;;;22.80;99.90;;;;;;5013953;28;20181;-60
2022/06/11 10:32:12;;;;;;;1999.90;999.90;;;22.90;99.90;;;;;;5013808;28;20189;-60
2022/06/11 10:34:44;;;;;;;1999.90;999.90;;;23.30;99.90;;;;;;5013859;28;20190;-61
2022/06/11 10:37:19;;;;;;;1999.90;999.90;;;23.10;1.00;;;;;;5013721;28;20256;-60
2022/06/11 10:39:53;;;;;;;1999.90;999.90;;;23.80;1.00;;;;;;5013912;28;20271;-60
2022/06/11 10:42:29;;;;;;;1999.90;999.90;;;24.00;1.00;;;;;;5013772;28;20243;-60
2022/06/11 10:44:56;;;;;;;1999.90;999.90;;;23.90;1.00;;;;;;5013740;28;20180;-61
2022/06/11 10:47:26;;;;;;;1999.90;999.90;;;23.40;99.90;;;;;;5013214;28;20658;-60
2022/06/11 10:50:02;;;;;;;1999.90;999.90;;;24.20;1.00;;;;;;5013640;28;20196;-60
2022/06/11 10:52:36;;;;;;;1999.90;999.90;;;24.70;99.90;;;;;;5013217;28;20271;-60
2022/06/11 10:55:07;;;;;;;1999.90;999.90;;;24.90;99.90;;;;;;5013568;28;20184;-60
2022/06/11 10:57:37;;;;;;;1999.90;999.90;;;24.50;1.00;;;;;;5013621;28;20558;-60
2022/06/11 11:00:15;;;;;;;1999.90;999.90;;;24.90;1.00;;;;;;5013456;28;20201;-61
2022/06/11 11:02:48;;;;;;;1999.90;999.90;;;24.90;1.00;;;;;;5013596;28;20184;-60
2022/06/11 11:05:18;;;;;;;1999.90;999.90;;;25.10;1.00;;;;;;5013325;28;20292;-60
2022/06/11 11:07:56;;;;;;;1999.90;999.90;;;24.50;1.00;;;;;;5013111;28;20201;-60
2022/06/11 11:10:40;;;;;;;1999.90;999.90;;;25.00;99.90;;;;;;5012701;28;20236;-60
2022/06/11 11:13:16;;;;;;;1999.90;999.90;;;25.10;1.00;;;;;;5013176;28;20192;-60
2022/06/11 11:15:52;;;;;;;1999.90;999.90;;;25.50;1.00;;;;;;5012843;28;20197;-59
2022/06/11 11:18:21;;;;;;;1999.90;999.90;;;25.60;1.00;;;;;;5013011;28;20567;-60
2022/06/11 11:20:51;;;;;;;1999.90;999.90;;;25.10;1.00;;;;;;5013082;28;20197;-60
2022/06/11 11:23:22;;;;;;;1999.90;999.90;;;25.00;99.90;;;;;;5012920;28;20251;-60
2022/06/11 11:25:52;;;;;;;1999.90;999.90;;;25.30;1.00;;;;;;5012978;28;20190;-60
2022/06/11 11:28:25;;;;;;;1999.90;999.90;;;25.40;1.00;;;;;;5012232;28;20178;-60
2022/06/11 11:31:02;;;;;;;1999.90;999.90;;;24.90;1.00;;;;;;5013098;28;20189;-59
2022/06/11 11:33:32;;;;;;;1999.90;999.90;;;25.30;99.90;;;;;;5012935;28;20520;-60
2022/06/11 11:36:14;;;;;;;1999.90;999.90;;;25.90;1.00;;;;;;5013039;28;20181;-60
2022/06/11 11:38:42;;;;;;;1999.90;999.90;;;26.40;99.90;;;;;;5012484;28;20725;-60
2022/06/11 11:41:24;;;;;;;1999.90;999.90;;;26.30;1.00;;;;;;5012445;28;20666;-60
2022/06/11 11:43:51;;;;;;;1999.90;999.90;;;26.00;99.90;;;;;;5012721;28;20264;-60
2022/06/11 11:46:23;;;;;;;1999.90;999.90;;;25.60;99.90;;;;;;5012697;28;20200;-60
2022/06/11 11:48:55;;;;;;;1999.90;999.90;;;25.40;1.00;;;;;;5012486;28;20177;-60
2022/06/11 11:51:27;;;;;;;1999.90;999.90;;;26.10;1.00;;;;;;5011619;28;20201;-61
2022/06/11 11:53:59;;;;;;;1999.90;999.90;;;26.00;96.20;;;;;;5012551;28;20283;-61
2022/06/11 11:56:31;;;;;;;1999.90;999.90;;;26.70;99.90;;;;;;5012291;28;20635;-61
2022/06/11 11:59:02;;;;;;;1999.90;999.90;;;27.30;99.90;;;;;;5012521;28;20201;-61
2022/06/11 12:01:30;;;;;;;1999.90;999.90;;;27.40;77.00;;;;;;5012164;28;20185;-61
2022/06/11 12:04:08;;;;;;;1999.90;999.90;;;27.70;1.00;;;;;;5012488;28;20204;-61
2022/06/11 12:06:37;;;;;;;1999.90;999.90;;;26.90;99.90;;;;;;5012321;28;20192;-61
2022/06/11 12:09:22;;;;;;;1999.90;999.90;;;25.90;99.90;;;;;;5012643;28;20196;-62
2022/06/11 12:12:00;;;;;;;1999.90;999.90;;;26.10;1.00;;;;;;5012234;28;20237;-61
2022/06/11 12:14:32;;;;;;;1999.90;999.90;;;25.90;1.00;;;;;;5012120;28;20185;-61
2022/06/11 12:17:09;;;;;;;1999.90;999.90;;;26.30;99.90;;;;;;5012309;28;20200;-61
2022/06/11 12:19:37;;;;;;;1999.90;999.90;;;26.40;18.00;;;;;;5012366;28;20185;-61
2022/06/11 12:22:08;;;;;;;1999.90;999.90;;;26.50;99.90;;;;;;5011824;28;20208;-61
2022/06/11 12:24:38;;;;;;;1999.90;999.90;;;27.10;1.00;;;;;;5010095;28;20287;-61